Time;durP1;ratioP1;P1;durP2;ratioP2;P2;SDS_P1;SDS_P2;PMS_P1;PMS_P2;Temp;Humidity;BMP_temperature;BMP_pressure;BME280_temperature;BME280_humidity;BME280_pressure;Samples;Min_cycle;Max_cycle;Signal;HPM_P1;HPM_P2
2023/01/11 00:00:06;;;;;;;13.70;10.65;;;8.90;99.90;;;;;;4925094;29;20502;-80
2023/01/11 00:02:33;;;;;;;13.70;8.48;;;8.90;99.90;;;;;;4919703;28;20071;-79
2023/01/11 00:04:59;;;;;;;13.10;10.13;;;8.90;99.90;;;;;;4924600;28;20198;-80
2023/01/11 00:07:24;;;;;;;14.10;10.18;;;8.90;99.90;;;;;;4907894;28;20516;-79
2023/01/11 00:09:50;;;;;;;12.77;9.27;;;8.90;99.90;;;;;;4907142;29;20106;-80
2023/01/11 00:12:16;;;;;;;13.00;9.85;;;9.00;99.90;;;;;;4890864;29;20483;-80
2023/01/11 00:14:41;;;;;;;13.35;9.07;;;8.90;99.90;;;;;;4906244;29;20054;-79
2023/01/11 00:17:07;;;;;;;12.23;9.57;;;9.00;99.90;;;;;;4914068;29;20091;-79
2023/01/11 00:19:32;;;;;;;16.27;11.32;;;9.00;99.90;;;;;;4906284;28;20126;-80
2023/01/11 00:21:58;;;;;;;13.63;8.50;;;9.00;99.90;;;;;;4906517;29;20047;-79
2023/01/11 00:24:24;;;;;;;13.52;9.50;;;9.00;99.90;;;;;;4920687;29;20044;-80
2023/01/11 00:26:49;;;;;;;16.13;9.52;;;9.10;99.90;;;;;;4920610;28;20050;-80
2023/01/11 00:29:15;;;;;;;13.27;10.27;;;9.10;99.90;;;;;;4906596;29;20039;-79
2023/01/11 00:31:40;;;;;;;13.93;9.80;;;9.10;99.90;;;;;;4905553;29;20122;-80
2023/01/11 00:34:06;;;;;;;16.05;10.57;;;9.10;99.90;;;;;;4900210;29;20329;-80
2023/01/11 00:36:31;;;;;;;14.30;9.13;;;9.10;99.90;;;;;;4908186;29;20070;-80
2023/01/11 00:38:57;;;;;;;13.35;10.20;;;9.10;99.90;;;;;;4925453;29;20086;-80
2023/01/11 00:49:38;;;;;;;12.07;8.50;;;9.20;99.90;;;;;;4904993;28;20123;-77
2023/01/11 00:52:07;;;;;;;11.60;7.65;;;9.20;99.90;;;;;;4908269;29;20478;-77
2023/01/11 00:54:37;;;;;;;9.80;7.43;;;9.20;99.90;;;;;;4911269;29;20052;-77
2023/01/11 00:57:05;;;;;;;11.57;7.45;;;9.20;99.90;;;;;;4908178;28;20044;-77
2023/01/11 00:59:31;;;;;;;11.82;7.80;;;9.20;99.90;;;;;;4925078;28;20048;-77
2023/01/11 01:01:56;;;;;;;8.73;7.05;;;9.30;99.90;;;;;;4924707;29;20517;-77
2023/01/11 01:04:22;;;;;;;11.25;8.60;;;9.20;99.90;;;;;;4895153;29;20055;-77
2023/01/11 01:06:47;;;;;;;11.82;8.23;;;9.30;99.90;;;;;;4917764;29;20122;-77
2023/01/11 01:09:13;;;;;;;9.07;7.35;;;9.30;99.90;;;;;;4924734;29;20036;-77
2023/01/11 01:11:39;;;;;;;10.30;7.35;;;9.30;99.90;;;;;;4908180;29;20052;-77
2023/01/11 01:16:48;;;;;;;13.10;8.80;;;9.40;99.90;;;;;;4905418;28;20071;-77
2023/01/11 01:19:14;;;;;;;12.75;8.32;;;9.40;99.90;;;;;;4888760;29;20495;-78
2023/01/11 01:21:40;;;;;;;13.10;9.25;;;9.50;99.90;;;;;;4919052;29;20059;-77
2023/01/11 01:24:06;;;;;;;15.57;9.02;;;9.50;99.90;;;;;;4924723;29;20048;-77
2023/01/11 01:26:31;;;;;;;9.27;7.80;;;9.50;99.90;;;;;;4922177;29;20043;-79
2023/01/11 01:28:57;;;;;;;12.95;7.75;;;9.50;99.90;;;;;;4888395;29;20044;-79
2023/01/11 01:31:23;;;;;;;12.90;8.38;;;9.50;99.90;;;;;;4916745;29;20513;-79
2023/01/11 01:33:48;;;;;;;11.48;7.50;;;9.60;99.90;;;;;;4925006;29;20044;-80
2023/01/11 01:36:14;;;;;;;13.20;8.95;;;9.60;99.90;;;;;;4917095;29;20203;-79
2023/01/11 01:38:39;;;;;;;12.75;9.07;;;9.60;99.90;;;;;;4905806;29;20043;-79
2023/01/11 01:41:05;;;;;;;10.60;7.82;;;9.60;99.90;;;;;;4913308;29;20090;-79
2023/01/11 01:43:53;;;;;;;11.88;8.85;;;9.60;99.90;;;;;;4924493;29;20565;-79
2023/01/11 01:46:21;;;;;;;13.85;10.13;;;9.70;99.90;;;;;;4924022;29;20109;-80
2023/01/11 01:48:56;;;;;;;16.98;10.63;;;9.60;99.90;;;;;;4907962;29;20421;-79
2023/01/11 01:51:34;;;;;;;14.82;10.20;;;9.70;99.90;;;;;;4896543;28;20059;-79
2023/01/11 01:54:05;;;;;;;18.25;10.18;;;9.70;99.90;;;;;;4888550;28;20059;-79
2023/01/11 01:56:36;;;;;;;21.45;11.20;;;9.70;99.90;;;;;;4905829;29;20396;-80
2023/01/11 01:59:07;;;;;;;15.13;11.02;;;9.70;99.90;;;;;;4888511;28;20383;-80
2023/01/11 02:01:48;;;;;;;16.90;9.88;;;9.70;99.90;;;;;;4915527;29;20098;-79
2023/01/11 02:04:42;;;;;;;15.82;10.05;;;9.80;99.90;;;;;;4923800;28;20056;-79
2023/01/11 02:07:12;;;;;;;13.02;9.23;;;9.80;99.90;;;;;;4908335;28;20092;-80
2023/01/11 02:10:06;;;;;;;22.95;12.00;;;9.80;99.90;;;;;;4905491;29;20044;-79
2023/01/11 02:12:39;;;;;;;17.75;10.45;;;9.80;99.90;;;;;;4906905;29;20083;-79
2023/01/11 02:15:06;;;;;;;12.73;8.93;;;9.80;99.90;;;;;;4923923;28;20051;-79
2023/01/11 02:17:31;;;;;;;13.90;9.95;;;9.80;99.90;;;;;;4923767;29;20062;-79
2023/01/11 02:20:13;;;;;;;12.48;9.77;;;9.80;99.90;;;;;;4923192;29;20036;-80
2023/01/11 02:22:57;;;;;;;18.85;9.95;;;9.90;99.90;;;;;;4906220;29;20499;-79
2023/01/11 02:25:47;;;;;;;14.70;9.13;;;9.90;99.90;;;;;;4888065;29;20104;-79
2023/01/11 02:28:25;;;;;;;15.27;9.32;;;9.90;99.90;;;;;;4905022;28;20511;-80
2023/01/11 02:31:00;;;;;;;16.88;10.27;;;9.80;99.90;;;;;;4904043;29;20051;-79
2023/01/11 02:33:53;;;;;;;15.10;9.95;;;9.90;99.90;;;;;;4905295;29;20102;-79
2023/01/11 02:36:47;;;;;;;16.30;8.80;;;9.90;99.90;;;;;;4887944;29;20064;-79
2023/01/11 02:39:12;;;;;;;16.75;7.32;;;9.90;99.90;;;;;;4915973;29;20048;-79
2023/01/11 02:47:33;;;;;;;8.82;5.97;;;9.90;99.90;;;;;;4887577;28;20056;-79
2023/01/11 02:50:14;;;;;;;15.65;5.22;;;10.00;99.90;;;;;;4886645;29;20190;-80
2023/01/11 02:52:50;;;;;;;20.15;6.60;;;10.00;99.90;;;;;;4904831;29;20521;-79
2023/01/11 02:55:20;;;;;;;18.10;5.07;;;10.00;99.90;;;;;;4983686;23;20043;-79
2023/01/11 02:57:47;;;;;;;21.45;4.35;;;10.00;99.90;;;;;;4923582;29;20040;-79
2023/01/11 03:00:15;;;;;;;16.92;5.07;;;10.00;99.90;;;;;;4923941;29;20083;-79
2023/01/11 03:02:41;;;;;;;25.38;7.40;;;10.00;99.90;;;;;;4923469;28;20086;-79
2023/01/11 03:05:12;;;;;;;10.25;4.70;;;10.10;99.90;;;;;;4923157;28;20087;-79
2023/01/11 03:08:02;;;;;;;19.90;4.85;;;10.00;99.90;;;;;;4923879;28;20102;-79
2023/01/11 03:10:54;;;;;;;15.32;4.88;;;10.00;99.90;;;;;;4924230;28;20182;-79
2023/01/11 03:13:35;;;;;;;15.98;5.10;;;10.00;99.90;;;;;;4907873;28;20930;-80
2023/01/11 03:16:18;;;;;;;14.60;4.70;;;10.10;99.90;;;;;;4927347;29;20066;-79
2023/01/11 03:19:03;;;;;;;12.68;4.00;;;10.10;99.90;;;;;;4927805;28;20039;-79
2023/01/11 03:21:38;;;;;;;22.27;5.80;;;10.00;99.90;;;;;;4909972;29;20048;-79
2023/01/11 03:24:06;;;;;;;19.17;4.68;;;10.10;99.90;;;;;;4890759;28;20082;-79
2023/01/11 03:26:42;;;;;;;15.52;4.72;;;10.10;99.90;;;;;;4918500;29;20036;-79
2023/01/11 03:29:27;;;;;;;20.77;5.65;;;10.10;99.90;;;;;;4908318;28;20083;-79
2023/01/11 03:32:08;;;;;;;13.82;5.03;;;10.10;99.90;;;;;;5008917;28;20048;-79
2023/01/11 03:34:51;;;;;;;20.80;4.70;;;10.10;99.90;;;;;;4926601;28;20051;-79
2023/01/11 03:37:31;;;;;;;17.73;4.35;;;10.10;99.90;;;;;;4910388;28;20074;-79
2023/01/11 03:40:02;;;;;;;25.98;5.72;;;10.10;99.90;;;;;;4926523;28;20044;-79
2023/01/11 03:42:30;;;;;;;20.33;5.93;;;10.10;99.90;;;;;;4926859;29;20047;-79
2023/01/11 03:44:58;;;;;;;20.17;5.55;;;10.10;99.90;;;;;;4926669;29;20065;-79
2023/01/11 03:47:28;;;;;;;17.58;4.88;;;10.10;99.90;;;;;;4926722;29;20507;-79
2023/01/11 03:50:05;;;;;;;18.35;5.68;;;10.10;99.90;;;;;;4925816;29;20040;-79
2023/01/11 03:52:36;;;;;;;19.38;4.70;;;10.10;99.90;;;;;;4941631;29;20491;-79
2023/01/11 03:55:06;;;;;;;9.77;4.57;;;10.00;99.90;;;;;;4926216;29;20390;-79
2023/01/11 03:57:36;;;;;;;14.13;3.97;;;10.00;99.90;;;;;;4910216;28;20056;-79
2023/01/11 04:00:04;;;;;;;24.92;4.30;;;10.00;99.90;;;;;;4909288;29;20048;-79
2023/01/11 04:02:38;;;;;;;31.67;5.40;;;10.00;99.90;;;;;;4926922;29;20129;-79
2023/01/11 04:05:05;;;;;;;18.55;5.20;;;9.90;99.90;;;;;;4925726;29;20086;-79
2023/01/11 04:07:30;;;;;;;16.00;6.80;;;9.90;99.90;;;;;;4926718;28;20036;-79
2023/01/11 04:09:57;;;;;;;28.20;5.72;;;10.00;99.90;;;;;;4925500;29;20426;-79
2023/01/11 04:12:23;;;;;;;22.08;5.43;;;9.90;99.90;;;;;;4926672;29;20051;-79
2023/01/11 04:14:49;;;;;;;20.33;4.93;;;10.00;99.90;;;;;;4926063;29;20498;-79
2023/01/11 04:17:14;;;;;;;19.92;5.20;;;10.00;99.90;;;;;;4894154;28;20129;-79
2023/01/11 04:19:40;;;;;;;9.52;3.20;;;10.00;99.90;;;;;;4925387;28;20039;-79
2023/01/11 04:22:06;;;;;;;21.48;3.85;;;9.90;99.90;;;;;;4926283;29;20044;-79
2023/01/11 04:24:32;;;;;;;11.98;3.80;;;9.90;99.90;;;;;;4925847;28;20044;-79
2023/01/11 04:26:57;;;;;;;11.98;4.13;;;9.90;99.90;;;;;;4924465;28;20047;-79
2023/01/11 04:29:23;;;;;;;9.02;3.50;;;9.90;99.90;;;;;;4991915;28;20083;-79
2023/01/11 04:31:48;;;;;;;11.80;3.45;;;9.90;99.90;;;;;;4926396;28;20078;-79
2023/01/11 04:34:14;;;;;;;11.95;3.40;;;9.90;99.90;;;;;;4940445;28;20048;-79
2023/01/11 04:36:40;;;;;;;13.98;3.88;;;9.80;99.90;;;;;;4926039;28;20079;-79
2023/01/11 04:39:09;;;;;;;13.02;3.55;;;9.80;99.90;;;;;;4925626;28;20490;-79
2023/01/11 04:44:19;;;;;;;9.43;3.35;;;9.90;99.90;;;;;;4908985;28;20055;-79
2023/01/11 04:46:45;;;;;;;8.90;3.53;;;9.80;99.90;;;;;;4926409;28;20048;-79
2023/01/11 04:49:10;;;;;;;12.10;4.28;;;9.80;99.90;;;;;;4990330;28;20476;-79
2023/01/11 04:51:36;;;;;;;30.25;6.07;;;9.80;99.90;;;;;;4926103;28;20046;-79
2023/01/11 04:54:01;;;;;;;13.05;5.20;;;9.80;99.90;;;;;;4925623;28;20047;-79
2023/01/11 04:56:28;;;;;;;24.20;5.25;;;9.80;99.90;;;;;;4925260;28;20068;-79
2023/01/11 04:58:53;;;;;;;21.30;5.28;;;9.80;99.90;;;;;;4925486;29;20121;-79
2023/01/11 05:01:19;;;;;;;12.75;3.72;;;9.80;99.90;;;;;;4908773;28;20433;-79
2023/01/11 05:03:45;;;;;;;15.95;4.35;;;9.80;99.90;;;;;;4925206;28;20097;-79
2023/01/11 05:06:12;;;;;;;23.15;4.18;;;9.80;99.90;;;;;;4925489;29;20101;-79
2023/01/11 05:08:38;;;;;;;18.83;4.57;;;9.80;99.90;;;;;;4925713;29;20054;-79
2023/01/11 05:11:06;;;;;;;21.15;5.22;;;9.70;99.90;;;;;;4892571;29;20485;-79
2023/01/11 05:13:41;;;;;;;22.02;4.82;;;9.70;99.90;;;;;;4925506;29;20090;-79
2023/01/11 05:16:24;;;;;;;23.23;4.78;;;9.70;99.90;;;;;;4925180;29;20101;-79
2023/01/11 05:18:52;;;;;;;8.75;2.75;;;9.60;99.90;;;;;;4923408;29;20063;-79
2023/01/11 05:21:20;;;;;;;12.73;4.07;;;9.60;99.90;;;;;;4908886;28;20547;-79
2023/01/11 05:23:47;;;;;;;17.02;3.97;;;9.50;99.90;;;;;;4942026;28;20076;-79
2023/01/11 05:26:16;;;;;;;14.30;4.10;;;9.50;99.90;;;;;;4924910;29;20051;-79
2023/01/11 05:28:42;;;;;;;6.95;2.67;;;9.50;99.90;;;;;;4924829;29;20098;-79
2023/01/11 05:31:08;;;;;;;18.98;3.63;;;9.40;99.90;;;;;;4907705;28;20052;-78
2023/01/11 05:33:34;;;;;;;15.75;3.42;;;9.40;99.90;;;;;;4924580;28;20123;-79
2023/01/11 05:36:03;;;;;;;11.30;3.50;;;9.30;99.90;;;;;;4924751;29;20040;-79
2023/01/11 05:38:29;;;;;;;21.23;5.35;;;9.30;99.90;;;;;;4924523;29;20044;-79
2023/01/11 05:40:59;;;;;;;14.68;4.22;;;9.30;99.90;;;;;;4924549;28;20047;-79
2023/01/11 05:43:26;;;;;;;11.63;3.50;;;9.20;99.90;;;;;;4925295;29;20048;-79
2023/01/11 05:45:51;;;;;;;14.48;4.80;;;9.30;99.90;;;;;;4924051;29;20468;-79
2023/01/11 05:48:17;;;;;;;16.10;4.88;;;9.20;99.90;;;;;;4925402;29;20386;-79
2023/01/11 05:50:43;;;;;;;16.85;4.28;;;9.20;99.90;;;;;;4924040;28;20374;-79
2023/01/11 05:53:09;;;;;;;12.95;5.10;;;9.30;99.90;;;;;;4939825;29;20048;-79
2023/01/11 05:55:35;;;;;;;14.30;4.50;;;9.30;99.90;;;;;;4924541;29;20055;-79
2023/01/11 05:58:00;;;;;;;15.32;4.32;;;9.20;99.90;;;;;;4891616;29;20109;-79
2023/01/11 06:00:26;;;;;;;9.52;3.58;;;9.30;99.90;;;;;;4924728;28;20054;-79
2023/01/11 06:02:52;;;;;;;14.20;4.85;;;9.30;99.90;;;;;;4924975;28;20046;-79
2023/01/11 06:05:17;;;;;;;11.00;3.67;;;9.30;99.90;;;;;;4923039;28;20135;-78
2023/01/11 06:07:43;;;;;;;15.02;3.70;;;9.20;99.90;;;;;;4924873;28;20039;-79
2023/01/11 06:10:09;;;;;;;17.17;4.00;;;9.30;99.90;;;;;;4907410;29;20051;-80
2023/01/11 06:12:35;;;;;;;13.85;3.80;;;9.30;99.90;;;;;;4925062;28;20043;-79
2023/01/11 06:15:00;;;;;;;11.63;2.55;;;9.30;99.90;;;;;;4923847;28;20561;-79
2023/01/11 06:17:26;;;;;;;10.27;3.05;;;9.30;99.90;;;;;;4924836;28;20048;-79
2023/01/11 06:19:51;;;;;;;6.38;2.53;;;9.30;99.90;;;;;;4989200;28;20055;-80
2023/01/11 06:22:17;;;;;;;8.00;2.80;;;9.30;99.90;;;;;;4924218;28;20047;-79
2023/01/11 06:24:42;;;;;;;11.77;3.85;;;9.30;99.90;;;;;;4924594;28;20574;-79
2023/01/11 06:27:08;;;;;;;7.57;4.20;;;9.30;99.90;;;;;;4917471;28;20047;-79
2023/01/11 06:29:34;;;;;;;17.38;2.88;;;9.30;99.90;;;;;;5002468;28;20063;-79
2023/01/11 06:31:59;;;;;;;4.43;2.00;;;9.30;99.90;;;;;;4990144;28;20051;-79
2023/01/11 06:34:25;;;;;;;11.60;2.55;;;9.20;99.90;;;;;;4923603;28;20083;-79
2023/01/11 06:36:50;;;;;;;12.95;2.55;;;9.20;99.90;;;;;;4924573;28;20043;-80
2023/01/11 06:39:16;;;;;;;7.85;2.75;;;9.20;99.90;;;;;;4990930;28;20043;-79
2023/01/11 06:41:41;;;;;;;13.82;3.10;;;9.20;99.90;;;;;;4928221;29;20093;-79
2023/01/11 06:44:07;;;;;;;6.05;2.35;;;9.20;99.90;;;;;;4918074;28;20051;-81
2023/01/11 06:46:33;;;;;;;11.43;3.78;;;9.20;99.90;;;;;;4906996;28;20142;-79
2023/01/11 06:49:00;;;;;;;4.82;1.88;;;9.20;99.90;;;;;;4924816;28;20044;-79
2023/01/11 06:51:25;;;;;;;12.70;3.05;;;9.10;99.90;;;;;;4924172;29;20039;-79
2023/01/11 06:53:51;;;;;;;9.63;2.13;;;9.10;99.90;;;;;;4924017;28;20062;-84
2023/01/11 06:56:17;;;;;;;7.30;2.83;;;9.10;99.90;;;;;;4923147;29;20059;-81
2023/01/11 06:58:44;;;;;;;6.60;2.05;;;9.00;99.90;;;;;;4924032;28;20574;-80
2023/01/11 07:01:09;;;;;;;4.88;2.13;;;9.00;99.90;;;;;;4922833;28;20083;-80
2023/01/11 07:03:35;;;;;;;5.00;2.50;;;9.00;99.90;;;;;;4905418;28;20086;-80
2023/01/11 07:06:01;;;;;;;8.20;2.58;;;9.00;99.90;;;;;;4925266;28;20505;-77
2023/01/11 07:08:26;;;;;;;3.33;1.30;;;9.00;99.90;;;;;;4921719;29;20040;-78
2023/01/11 07:10:53;;;;;;;17.60;3.38;;;8.90;99.90;;;;;;4926212;28;20043;-76
2023/01/11 07:13:19;;;;;;;4.05;1.60;;;8.90;99.90;;;;;;4922190;28;20143;-76
2023/01/11 07:15:47;;;;;;;9.38;2.90;;;8.80;99.90;;;;;;4925773;29;20054;-76
2023/01/11 07:18:13;;;;;;;5.30;2.58;;;8.80;99.90;;;;;;4926873;28;20047;-76
2023/01/11 07:20:39;;;;;;;8.73;2.17;;;8.80;99.90;;;;;;4927043;29;20039;-76
2023/01/11 07:23:06;;;;;;;2.72;2.08;;;8.80;99.90;;;;;;4929608;29;20127;-76
2023/01/11 07:25:32;;;;;;;14.55;2.60;;;8.80;99.90;;;;;;4905082;28;20501;-76
2023/01/11 07:27:59;;;;;;;2.95;2.50;;;8.80;99.90;;;;;;4926800;29;20481;-76
2023/01/11 07:30:27;;;;;;;14.10;3.05;;;8.80;99.90;;;;;;4927872;29;20055;-77
2023/01/11 07:32:53;;;;;;;4.97;2.70;;;8.80;99.90;;;;;;4922722;28;20486;-77
2023/01/11 07:35:19;;;;;;;3.30;1.55;;;8.80;99.90;;;;;;4921605;28;20098;-77
2023/01/11 07:37:45;;;;;;;4.97;1.92;;;8.80;99.90;;;;;;4922862;28;20093;-76
2023/01/11 07:40:11;;;;;;;18.70;2.28;;;8.70;99.90;;;;;;4921463;28;20295;-76
2023/01/11 07:45:21;;;;;;;6.80;2.10;;;8.70;99.90;;;;;;4921882;28;20074;-76
2023/01/11 07:47:52;;;;;;;9.13;2.47;;;8.70;99.90;;;;;;4905511;28;20036;-76
2023/01/11 07:50:18;;;;;;;5.22;3.40;;;8.70;99.90;;;;;;4921236;28;20087;-76
2023/01/11 07:52:47;;;;;;;9.05;2.53;;;8.70;99.90;;;;;;4922768;28;20087;-77
2023/01/11 07:55:14;;;;;;;5.28;2.92;;;8.70;99.90;;;;;;4921646;28;20048;-77
2023/01/11 07:57:39;;;;;;;10.07;2.65;;;8.70;99.90;;;;;;4922566;28;20430;-77
2023/01/11 08:00:06;;;;;;;15.18;3.20;;;8.60;99.90;;;;;;4904736;29;20051;-76
2023/01/11 08:02:31;;;;;;;4.82;2.00;;;8.60;99.90;;;;;;4908100;28;20052;-76
2023/01/11 08:04:57;;;;;;;5.50;1.65;;;8.60;99.90;;;;;;4924519;28;20577;-77
2023/01/11 08:07:23;;;;;;;4.03;2.05;;;8.50;99.90;;;;;;4924633;28;20425;-76
2023/01/11 08:09:48;;;;;;;5.60;1.90;;;8.50;99.90;;;;;;4925750;28;20101;-76
2023/01/11 08:15:09;;;;;;;6.38;3.90;;;8.50;99.90;;;;;;4946561;28;20314;-76
2023/01/11 08:17:35;;;;;;;7.93;2.78;;;8.40;99.90;;;;;;4907911;28;20494;-76
2023/01/11 08:20:01;;;;;;;9.63;3.05;;;8.40;99.90;;;;;;4923309;28;20733;-76
2023/01/11 08:22:26;;;;;;;7.30;2.95;;;8.30;99.90;;;;;;4925130;28;20123;-76
2023/01/11 08:24:52;;;;;;;7.68;4.10;;;8.30;99.90;;;;;;4924743;28;20093;-76
2023/01/11 08:27:18;;;;;;;17.08;2.33;;;8.30;99.90;;;;;;4925009;29;20460;-76
2023/01/11 08:29:43;;;;;;;9.27;3.75;;;8.20;99.90;;;;;;4908391;29;20524;-77
2023/01/11 08:32:10;;;;;;;6.05;3.67;;;8.20;99.90;;;;;;4924302;29;20437;-76
2023/01/11 08:34:35;;;;;;;5.28;2.28;;;8.20;99.90;;;;;;4906777;29;20072;-76
2023/01/11 08:37:01;;;;;;;7.57;2.85;;;8.20;99.90;;;;;;4907459;29;20054;-76
2023/01/11 08:39:29;;;;;;;8.27;1.92;;;8.10;99.90;;;;;;4925022;29;20055;-77
2023/01/11 08:41:56;;;;;;;9.25;2.95;;;8.10;99.90;;;;;;4906981;29;20050;-76
2023/01/11 08:44:22;;;;;;;8.32;3.17;;;8.10;99.90;;;;;;4907677;29;20044;-76
2023/01/11 08:46:47;;;;;;;4.60;2.70;;;8.10;99.90;;;;;;4924665;29;20051;-76
2023/01/11 08:49:13;;;;;;;4.07;1.80;;;8.10;99.90;;;;;;4906886;29;20051;-76
2023/01/11 08:51:40;;;;;;;15.38;4.28;;;8.00;99.90;;;;;;4925032;28;20043;-76
2023/01/11 08:54:10;;;;;;;9.77;3.05;;;8.00;99.90;;;;;;4923946;29;20048;-76
2023/01/11 08:56:36;;;;;;;5.80;2.10;;;8.00;99.90;;;;;;4924922;29;20075;-76
2023/01/11 08:59:04;;;;;;;8.15;2.05;;;8.00;99.90;;;;;;4924174;28;20308;-76
2023/01/11 09:01:30;;;;;;;6.22;2.22;;;8.00;99.90;;;;;;4924759;28;20047;-76
2023/01/11 09:03:56;;;;;;;8.00;2.60;;;7.90;99.90;;;;;;4923011;29;20036;-76
2023/01/11 09:06:22;;;;;;;4.45;1.65;;;7.80;99.90;;;;;;4924681;28;20505;-76
2023/01/11 09:08:48;;;;;;;5.93;2.72;;;7.90;99.90;;;;;;4924696;29;20401;-76
2023/01/11 09:13:58;;;;;;;9.32;3.50;;;7.90;99.90;;;;;;4906957;28;20197;-76
2023/01/11 09:16:23;;;;;;;11.95;2.60;;;7.90;99.90;;;;;;4923887;29;20126;-76
2023/01/11 09:18:49;;;;;;;5.18;1.85;;;7.90;99.90;;;;;;4923219;29;20410;-77
2023/01/11 09:21:15;;;;;;;7.28;3.92;;;7.90;99.90;;;;;;4907131;29;20040;-76
2023/01/11 09:23:43;;;;;;;2.60;1.67;;;7.90;99.90;;;;;;4924665;29;20464;-77
2023/01/11 09:26:12;;;;;;;4.93;3.05;;;8.00;99.90;;;;;;4923254;29;20051;-76
2023/01/11 09:28:38;;;;;;;10.85;2.90;;;8.00;99.90;;;;;;4924069;28;20058;-76
2023/01/11 09:31:05;;;;;;;9.98;3.55;;;8.00;99.90;;;;;;4923627;28;20048;-76
2023/01/11 09:33:31;;;;;;;4.82;2.10;;;8.00;99.90;;;;;;4923192;28;20066;-76
2023/01/11 09:35:59;;;;;;;6.45;2.70;;;8.00;99.90;;;;;;4923635;28;20611;-76
2023/01/11 09:38:29;;;;;;;6.75;3.15;;;8.00;99.90;;;;;;4923785;28;20039;-76
2023/01/11 09:41:18;;;;;;;14.90;3.00;;;8.00;99.90;;;;;;4923383;29;20055;-76
2023/01/11 09:44:15;;;;;;;7.40;1.90;;;8.10;99.90;;;;;;4906622;28;20054;-76
2023/01/11 09:46:43;;;;;;;4.65;2.15;;;8.10;99.90;;;;;;4902585;28;20063;-76
2023/01/11 09:49:22;;;;;;;9.02;2.95;;;8.10;99.90;;;;;;4922416;29;20448;-76
2023/01/11 09:51:49;;;;;;;12.38;2.85;;;8.20;99.90;;;;;;4923928;28;20064;-76
2023/01/11 09:54:22;;;;;;;9.68;2.42;;;8.20;99.90;;;;;;4924211;29;20094;-76
2023/01/11 09:57:21;;;;;;;7.55;4.15;;;8.20;99.90;;;;;;4922450;28;20063;-77
2023/01/11 09:59:57;;;;;;;5.22;2.70;;;8.20;99.90;;;;;;4920625;28;20067;-76
2023/01/11 10:02:34;;;;;;;7.15;2.67;;;8.20;99.90;;;;;;4923175;28;20118;-76
2023/01/11 10:05:22;;;;;;;7.03;3.15;;;8.30;99.90;;;;;;4922353;28;20109;-76
2023/01/11 10:08:23;;;;;;;4.45;2.13;;;8.30;99.90;;;;;;4923181;28;20344;-76
2023/01/11 10:11:29;;;;;;;6.55;1.98;;;8.30;99.90;;;;;;4906237;28;20139;-76
2023/01/11 10:14:44;;;;;;;18.83;3.20;;;8.30;99.90;;;;;;4923068;28;20047;-76
2023/01/11 10:17:37;;;;;;;7.25;2.72;;;8.30;99.90;;;;;;4919452;28;20579;-76
2023/01/11 10:20:29;;;;;;;9.35;2.50;;;8.40;99.90;;;;;;4922190;28;20123;-76
2023/01/11 10:23:03;;;;;;;16.98;2.38;;;8.40;99.90;;;;;;4922197;28;20035;-76
2023/01/11 10:25:40;;;;;;;7.30;4.30;;;8.40;99.90;;;;;;4923674;28;20048;-76
2023/01/11 10:28:34;;;;;;;7.57;3.03;;;8.40;99.90;;;;;;4923101;28;20044;-76
2023/01/11 10:31:10;;;;;;;5.05;2.17;;;8.50;99.90;;;;;;4922335;29;20122;-76
2023/01/11 10:34:15;;;;;;;13.18;2.92;;;8.50;99.90;;;;;;4922192;29;20043;-76
2023/01/11 10:39:54;;;;;;;5.97;3.00;;;8.50;99.90;;;;;;4924795;28;20532;-79
2023/01/11 10:42:23;;;;;;;10.35;3.85;;;8.50;99.90;;;;;;4915294;29;20055;-77
2023/01/11 10:45:11;;;;;;;8.65;2.75;;;8.50;99.90;;;;;;4922866;29;20048;-77
2023/01/11 10:47:53;;;;;;;20.55;3.67;;;8.50;99.90;;;;;;4920791;29;20055;-77
2023/01/11 10:50:40;;;;;;;19.33;3.08;;;8.50;99.90;;;;;;4923459;28;20098;-78
2023/01/11 10:53:17;;;;;;;15.35;3.25;;;8.50;99.90;;;;;;4928616;29;20062;-78
2023/01/11 10:56:08;;;;;;;17.25;3.97;;;8.60;99.90;;;;;;4942024;28;20665;-77
2023/01/11 10:58:57;;;;;;;8.63;2.40;;;8.50;99.90;;;;;;4915385;29;20047;-77
2023/01/11 11:01:40;;;;;;;15.25;2.92;;;8.50;99.90;;;;;;4922689;29;20117;-77
2023/01/11 11:04:08;;;;;;;;;;;8.60;99.90;;;;;;4921999;29;20402;-77
2023/01/11 11:06:42;;;;;;;7.63;4.35;;;8.60;99.90;;;;;;4922805;29;19922;-79
2023/01/11 11:09:36;;;;;;;13.73;3.30;;;8.50;99.90;;;;;;4922415;28;20036;-79
2023/01/11 11:12:22;;;;;;;5.63;3.03;;;8.60;99.90;;;;;;4930931;28;20086;-79
2023/01/11 11:15:19;;;;;;;8.13;3.30;;;8.60;99.90;;;;;;4922759;29;20106;-78
2023/01/11 11:17:51;;;;;;;5.57;2.30;;;8.60;99.90;;;;;;4922428;29;20490;-79
2023/01/11 11:20:22;;;;;;;7.78;3.30;;;8.60;99.90;;;;;;4923212;29;20269;-77
2023/01/11 11:22:55;;;;;;;13.90;3.67;;;8.60;99.90;;;;;;4922357;29;20546;-78
2023/01/11 11:25:38;;;;;;;12.50;2.78;;;8.60;99.90;;;;;;4922646;29;20127;-78
2023/01/11 11:28:24;;;;;;;4.85;2.88;;;8.60;99.90;;;;;;4914373;29;20433;-79
2023/01/11 11:30:53;;;;;;;24.55;4.35;;;8.60;99.90;;;;;;4904932;29;20123;-79
2023/01/11 11:33:32;;;;;;;8.20;2.85;;;8.70;99.90;;;;;;4922132;29;20035;-77
2023/01/11 11:36:00;;;;;;;16.85;3.67;;;8.70;99.90;;;;;;4925066;28;20375;-79
2023/01/11 11:38:31;;;;;;;19.90;4.63;;;8.70;99.90;;;;;;4909153;28;20054;-79
2023/01/11 11:41:04;;;;;;;15.65;2.75;;;8.70;99.90;;;;;;4925914;28;20101;-77
2023/01/11 11:43:32;;;;;;;34.42;3.63;;;8.70;99.90;;;;;;4925666;28;20047;-78
2023/01/11 11:46:00;;;;;;;9.90;2.55;;;8.70;99.90;;;;;;4926082;29;20044;-77
2023/01/11 11:48:28;;;;;;;11.50;3.85;;;8.70;99.90;;;;;;4925003;28;20397;-78
2023/01/11 11:50:56;;;;;;;17.27;4.03;;;8.70;99.90;;;;;;4925767;29;20043;-79
2023/01/11 11:53:43;;;;;;;9.52;3.83;;;8.80;99.90;;;;;;4925813;29;20419;-79
2023/01/11 11:56:23;;;;;;;9.18;3.13;;;8.80;99.90;;;;;;4925010;28;20106;-78
2023/01/11 11:58:50;;;;;;;18.38;2.97;;;8.80;99.90;;;;;;4925431;29;20102;-78
2023/01/11 12:01:45;;;;;;;6.90;2.53;;;8.80;99.90;;;;;;4929541;29;20071;-79
2023/01/11 12:04:14;;;;;;;25.75;4.68;;;8.90;99.90;;;;;;4923377;29;20058;-77
2023/01/11 12:06:41;;;;;;;22.60;3.67;;;8.80;99.90;;;;;;4921731;28;20040;-79
2023/01/11 12:09:15;;;;;;;10.23;4.15;;;8.90;99.90;;;;;;4906253;29;20519;-78
2023/01/11 12:11:41;;;;;;;10.07;3.80;;;8.90;99.90;;;;;;4912243;28;20054;-78
2023/01/11 12:14:09;;;;;;;12.55;3.17;;;8.90;99.90;;;;;;4925708;28;20048;-78
2023/01/11 12:16:40;;;;;;;5.03;2.25;;;8.90;99.90;;;;;;4925474;28;20146;-77
2023/01/11 12:19:42;;;;;;;20.45;4.25;;;9.00;99.90;;;;;;4933050;29;20042;-78
2023/01/11 12:22:18;;;;;;;23.90;3.55;;;9.00;99.90;;;;;;4908512;29;20494;-79
2023/01/11 12:24:46;;;;;;;23.27;2.92;;;9.00;99.90;;;;;;4925907;28;20059;-78
2023/01/11 12:27:41;;;;;;;7.85;2.63;;;9.00;99.90;;;;;;4917261;29;20044;-77
2023/01/11 12:30:25;;;;;;;17.70;4.38;;;9.00;99.90;;;;;;4889362;28;20352;-79
2023/01/11 12:33:11;;;;;;;17.50;5.30;;;9.10;99.90;;;;;;4920701;29;20040;-77
2023/01/11 12:35:52;;;;;;;11.75;2.97;;;9.10;99.90;;;;;;4925273;28;20490;-79
2023/01/11 12:38:23;;;;;;;17.83;4.20;;;9.10;99.90;;;;;;4925274;29;20043;-76
2023/01/11 12:40:51;;;;;;;10.18;2.83;;;9.00;99.90;;;;;;4924431;28;20046;-78
2023/01/11 12:44:00;;;;;;;12.25;3.72;;;9.00;99.90;;;;;;4928646;28;20213;-82
2023/01/11 12:46:44;;;;;;;15.13;5.15;;;9.10;99.90;;;;;;4942690;28;20376;-79
2023/01/11 12:49:35;;;;;;;9.77;3.40;;;9.10;99.90;;;;;;4930766;28;20580;-78
2023/01/11 12:52:38;;;;;;;14.68;4.40;;;9.10;99.90;;;;;;4940974;29;20047;-77
2023/01/11 12:55:09;;;;;;;15.48;4.93;;;9.10;99.90;;;;;;4910973;29;20048;-79
2023/01/11 12:58:00;;;;;;;11.60;3.72;;;9.10;99.90;;;;;;4924645;28;20122;-79
2023/01/11 13:00:55;;;;;;;16.88;4.30;;;9.00;99.90;;;;;;4924407;29;20052;-78
2023/01/11 13:03:35;;;;;;;11.48;4.00;;;9.00;99.90;;;;;;4969239;28;20063;-78
2023/01/11 13:06:15;;;;;;;13.90;4.45;;;9.00;99.90;;;;;;4958546;28;20052;-76
2023/01/11 13:08:52;;;;;;;14.27;4.00;;;9.00;99.90;;;;;;4925103;29;20047;-79
2023/01/11 13:11:48;;;;;;;15.85;5.53;;;9.00;99.90;;;;;;4928383;28;20449;-79
2023/01/11 13:14:37;;;;;;;16.73;4.70;;;9.10;99.90;;;;;;4912068;28;20131;-79
2023/01/11 13:17:11;;;;;;;11.63;3.88;;;9.00;99.90;;;;;;4925008;28;20098;-77
2023/01/11 13:20:11;;;;;;;12.38;3.88;;;9.00;99.90;;;;;;4907416;28;20051;-78
2023/01/11 13:22:42;;;;;;;8.15;3.35;;;9.00;99.90;;;;;;4924858;28;20266;-79
2023/01/11 13:25:25;;;;;;;11.65;4.25;;;9.00;99.90;;;;;;4930879;29;20129;-77
2023/01/11 13:27:53;;;;;;;24.60;5.80;;;8.90;99.90;;;;;;4938125;28;20039;-78
2023/01/11 13:30:23;;;;;;;17.13;3.30;;;8.90;99.90;;;;;;4932357;29;20481;-77
2023/01/11 13:33:03;;;;;;;12.32;4.47;;;8.90;99.90;;;;;;4928576;29;20043;-77
2023/01/11 13:36:14;;;;;;;15.45;3.65;;;8.80;99.90;;;;;;4928035;28;20051;-78
2023/01/11 13:39:09;;;;;;;6.40;3.13;;;8.80;99.90;;;;;;4924458;29;20137;-78
2023/01/11 13:41:51;;;;;;;14.05;4.80;;;8.80;99.90;;;;;;4934198;28;20075;-79
2023/01/11 13:44:26;;;;;;;13.90;3.72;;;8.80;99.90;;;;;;4924474;29;20414;-77